avis per tempestes more information blitzortung!


avis per Pluja more information rain snow radar


Visita la nostra xarxa de llocs de meteo:

Template documentation
and downloads

And another site



Thunderstorms From: 20-07-2018 17:00 Until: 21-07-2018 01:59 warning for: Thunderstorms Level: Yellow info button
Rain From: 20-07-2018 17:00 Until: 21-07-2018 01:59 warning for: Rain Level: Yellow info button

Pagina Historial Weather Underground text

Diari Resum January 15, 2016 Unitats:  Mètric    Imperial   Tant
« Previous Dia
SegĂźent Dia »
Diari Setmana Mensual Anual Personalitzada
  Maxima: Minima: Media:
Temperatura: -17.8 °C -14.3 °C -12.6 °C
Punt de rosada: -17.8 °C -23.4 °C -18.4 °C
Humitat: Humidity % 30 % 49 %
Wind Speed: 0 km/h 0 km/h 6 km/h
RĂ fegues de vent: 0 km/h - -
Vent:- - WSW
Pression baro: 0 hPa 34496.6 hPa -
Precipitacions: 0 mm    
Historical Graphs
 
 
Dades de taula per January 15, 2016
Temps Temperatura Punt de rosada Pression baro Vent Wind Speed RĂ fegues de vent Humitat Rainfall Rate (Hourly)
-17.8 °C -17.8 °C 0 hPa Calm     Humidity % 0 mm
11:35 -12.2 °C -16.1 °C 34567.7 hPa West 2.6 km/h 7.7 km/h 62 % 0 mm
11:40 -12.3 °C -16.3 °C 34567.7 hPa North 2.6 km/h 5.1 km/h 61 % 0 mm
11:50 -12.2 °C -16 °C 34567.7 hPa WNW 4.2 km/h   62 % 0 mm
11:55 -12.1 °C -16.1 °C 34533.8 hPa Calm   7.7 km/h 61 % 0 mm
12:00 -12.1 °C -16.1 °C 34533.8 hPa ENE 5.1 km/h 12.9 km/h 61 % 0 mm
12:05 -12 °C -16 °C 34533.8 hPa NE 5.1 km/h 7.7 km/h 61 % 0 mm
12:10 -12.1 °C -16.1 °C 34567.7 hPa NE 5.1 km/h 15.6 km/h 61 % 0 mm
12:15 -12.2 °C -16.3 °C 34567.7 hPa NE 5.1 km/h 15.6 km/h 60 % 0 mm
12:20 -12.2 °C -16.3 °C 34567.7 hPa NNE 6 km/h 6 km/h 60 % 0 mm
12:25 -12.2 °C -16.3 °C 34533.8 hPa Calm   7.7 km/h 60 % 0 mm
12:30 -12.2 °C -16.3 °C 34533.8 hPa NNW 3.1 km/h 3.1 km/h 60 % 0 mm
12:35 -12.2 °C -16.3 °C 34533.8 hPa NNW 2.6 km/h 5.1 km/h 60 % 0 mm
12:40 -12.1 °C -16.2 °C 34533.8 hPa WNW 2.6 km/h 5.1 km/h 60 % 0 mm
12:45 -11.9 °C -16.1 °C 34533.8 hPa NNW 6 km/h 6 km/h 60 % 0 mm
12:50 -11.9 °C -16.1 °C 34533.8 hPa WSW 5.1 km/h 15.6 km/h 60 % 0 mm
12:55 -12.1 °C -16.3 °C 34533.8 hPa WSW 2.6 km/h 15.6 km/h 59 % 0 mm
13:00 -12 °C -16.3 °C 34533.8 hPa West 9 km/h 9 km/h 59 % 0 mm
13:05 -12 °C -16.3 °C 34533.8 hPa SSW 11.9 km/h 11.9 km/h 59 % 0 mm
13:10 -12.1 °C -16.4 °C 34533.8 hPa SW 3.1 km/h 3.1 km/h 58 % 0 mm
13:15 -11.9 °C -16.3 °C 34533.8 hPa NW 6 km/h 6 km/h 58 % 0 mm
13:20 -12 °C -16.4 °C 34533.8 hPa SW 6 km/h 6 km/h 58 % 0 mm
13:25 -12 °C -16.4 °C 34533.8 hPa ENE 6 km/h 6 km/h 58 % 0 mm
13:30 -12 °C -16.6 °C 34533.8 hPa SW 9 km/h 9 km/h 57 % 0 mm
13:35 -12 °C -16.4 °C 34533.8 hPa SW 9 km/h 9 km/h 58 % 0 mm
13:40 -11.9 °C -16.5 °C 34496.6 hPa WSW 9 km/h 9 km/h 57 % 0 mm
13:45 -11.9 °C -16.4 °C 34496.6 hPa South 6 km/h 6 km/h 57 % 0 mm
13:50 -11.8 °C -16.3 °C 34496.6 hPa SW 5.1 km/h 10.3 km/h 57 % 0 mm
13:55 -11.8 °C -16.3 °C 34496.6 hPa WSW 5.1 km/h 12.9 km/h 57 % 0 mm
14:00 -11.7 °C -16.3 °C 34496.6 hPa WSW 5.1 km/h 10.3 km/h 57 % 0 mm
14:05 -11.7 °C -16.3 °C 34496.6 hPa WSW 7.7 km/h 10.3 km/h 56 % 0 mm
14:10 -11.7 °C -16.4 °C 34496.6 hPa WSW 5.1 km/h 15.6 km/h 56 % 0 mm
14:15 -11.8 °C -16.7 °C 34496.6 hPa WSW 7.7 km/h 18.2 km/h 55 % 0 mm
14:20 -11.9 °C -16.7 °C 34496.6 hPa WSW 5.1 km/h 15.6 km/h 55 % 0 mm
14:25 -11.9 °C -16.7 °C 34496.6 hPa WSW 5.1 km/h 15.6 km/h 55 % 0 mm
14:30 -11.8 °C -16.8 °C 34496.6 hPa WSW 7.7 km/h 12.9 km/h 54 % 0 mm
14:35 -11.9 °C -16.8 °C 34496.6 hPa WSW 5.1 km/h 12.9 km/h 54 % 0 mm
14:40 -11.9 °C -16.8 °C 34496.6 hPa WSW 9 km/h 9 km/h 54 % 0 mm
14:45 -11.9 °C -16.9 °C 34496.6 hPa WSW 5.1 km/h 12.9 km/h 54 % 0 mm
14:50 -12 °C -17 °C 34496.6 hPa WSW 5.1 km/h 15.6 km/h 54 % 0 mm
14:55 -12.1 °C -17 °C 34496.6 hPa WSW 5.1 km/h 18.2 km/h 54 % 0 mm
15:00 -12 °C -16.9 °C 34496.6 hPa WSW 2.6 km/h 7.7 km/h 54 % 0 mm
15:05 -11.9 °C -16.8 °C 34496.6 hPa WSW 5.1 km/h 12.9 km/h 54 % 0 mm
15:15 -11.9 °C -16.8 °C 34496.6 hPa WSW 5.1 km/h 12.9 km/h 54 % 0 mm
15:20 -11.9 °C -16.8 °C 34496.6 hPa WSW 7.7 km/h 12.9 km/h 54 % 0 mm
15:25 -11.8 °C -17 °C 34496.6 hPa WSW 5.1 km/h 15.6 km/h 53 % 0 mm
15:30 -11.7 °C -16.8 °C 34496.6 hPa WNW 9 km/h   53 % 0 mm
15:35 -11.8 °C -16.9 °C 34496.6 hPa WSW 5.1 km/h 20.8 km/h 53 % 0 mm
15:40 -11.8 °C -17.1 °C 34496.6 hPa WSW 5.1 km/h 20.8 km/h 52 % 0 mm
15:45 -11.8 °C -17.1 °C 34496.6 hPa West 5.1 km/h 12.9 km/h 52 % 0 mm
15:50 -11.7 °C -17 °C 34496.6 hPa WSW 11.9 km/h 11.9 km/h 52 % 0 mm
15:55 -11.7 °C -17 °C 34496.6 hPa WSW 7.7 km/h 15.6 km/h 52 % 0 mm
16:00 -11.7 °C -17 °C 34496.6 hPa WSW 5.1 km/h 10.3 km/h 52 % 0 mm
16:05 -11.8 °C -17.1 °C 34496.6 hPa WSW 7.7 km/h 15.6 km/h 52 % 0 mm
16:10 -11.7 °C -16.9 °C 34496.6 hPa West 5.1 km/h 12.9 km/h 52 % 0 mm
16:15 -11.6 °C -16.9 °C 34496.6 hPa West 7.7 km/h 15.6 km/h 52 % 0 mm
16:20 -11.6 °C -16.8 °C 34496.6 hPa West 2.6 km/h 10.3 km/h 52 % 0 mm
16:25 -11.4 °C -16.7 °C 34496.6 hPa Calm   7.7 km/h 52 % 0 mm
16:30 -11.5 °C -16.9 °C 34496.6 hPa WSW 5.1 km/h 15.6 km/h 51 % 0 mm
16:35 -11.6 °C -16.9 °C 34496.6 hPa West 2.6 km/h 7.7 km/h 52 % 0 mm
16:40 -11.7 °C -17.1 °C 34496.6 hPa WSW 7.7 km/h 15.6 km/h 51 % 0 mm
16:45 -11.6 °C -17 °C 34496.6 hPa WSW 5.1 km/h 12.9 km/h 51 % 0 mm
16:50 -11.4 °C -16.9 °C 34496.6 hPa WSW 7.7 km/h 10.3 km/h 51 % 0 mm
16:55 -11.6 °C -17 °C 34496.6 hPa WSW 7.7 km/h 15.6 km/h 51 % 0 mm
17:00 -11.6 °C -17.1 °C 34496.6 hPa WSW 2.6 km/h 15.6 km/h 51 % 0 mm
17:05 -11.6 °C -17.2 °C 34496.6 hPa WSW 5.1 km/h 15.6 km/h 50 % 0 mm
17:10 -11.6 °C -17.1 °C 34496.6 hPa SSW 6 km/h 6 km/h 51 % 0 mm
17:15 -11.7 °C -17.1 °C 34496.6 hPa WSW 5.1 km/h 10.3 km/h 51 % 0 mm
17:20 -11.8 °C -17.3 °C 34496.6 hPa WSW 9 km/h 9 km/h 51 % 0 mm
17:25 -11.8 °C -17.3 °C 34496.6 hPa WSW 7.7 km/h 15.6 km/h 51 % 0 mm
17:30 -11.9 °C -17.5 °C 34496.6 hPa SW 5.1 km/h 12.9 km/h 50 % 0 mm
17:35 -12.1 °C -17.7 °C 34496.6 hPa WSW 7.7 km/h 18.2 km/h 50 % 0 mm
17:40 -12.3 °C -17.8 °C 34533.8 hPa WSW 7.7 km/h 15.6 km/h 50 % 0 mm
17:45 -12.4 °C -17.9 °C 34533.8 hPa WSW 5.1 km/h 15.6 km/h 50 % 0 mm
17:50 -12.4 °C -18 °C 34533.8 hPa WSW 5.1 km/h 10.3 km/h 50 % 0 mm
17:55 -12.6 °C -17.9 °C 34496.6 hPa WSW 5.1 km/h 12.9 km/h 51 % 0 mm
18:05 -12.8 °C -18.1 °C 34496.6 hPa WSW 2.6 km/h 12.9 km/h 51 % 0 mm
18:10 -12.8 °C -18.2 °C 34533.8 hPa WSW 5.1 km/h 7.7 km/h 51 % 0 mm
18:15 -12.9 °C -18.2 °C 34533.8 hPa WSW 5.1 km/h 15.6 km/h 51 % 0 mm
18:20 -12.9 °C -18.2 °C 34533.8 hPa WNW 6 km/h 6 km/h 51 % 0 mm
18:25 -12.9 °C -18.2 °C 34533.8 hPa WSW 2.6 km/h 10.3 km/h 51 % 0 mm
18:30 -12.9 °C -18.1 °C 34533.8 hPa WSW 5.1 km/h 12.9 km/h 52 % 0 mm
18:35 -13.1 °C -18.3 °C 34533.8 hPa WSW 5.1 km/h 10.3 km/h 52 % 0 mm
18:40 -13.2 °C -18.4 °C 34533.8 hPa SW 7.7 km/h 12.9 km/h 52 % 0 mm
18:45 -13.4 °C -18.4 °C 34533.8 hPa SW 7.7 km/h 15.6 km/h 53 % 0 mm
18:50 -13.4 °C -18.4 °C 34533.8 hPa SW 7.7 km/h 12.9 km/h 53 % 0 mm
18:55 -13.5 °C -18.5 °C 34533.8 hPa WSW 5.1 km/h 10.3 km/h 53 % 0 mm
19:00 -13.5 °C -18.4 °C 34533.8 hPa WSW 5.1 km/h 12.9 km/h 54 % 0 mm
19:05 -13.4 °C -18.3 °C 34533.8 hPa WSW 2.6 km/h 20.8 km/h 54 % 0 mm
19:10 -13.5 °C -18.4 °C 34533.8 hPa WSW 2.6 km/h 7.7 km/h 54 % 0 mm
19:15 -13.6 °C -18.4 °C 34533.8 hPa WSW 5.1 km/h 12.9 km/h 54 % 0 mm
19:20 -13.5 °C -18.2 °C 34533.8 hPa SW 7.7 km/h 15.6 km/h 55 % 0 mm
19:25 -13.4 °C -18.2 °C 34533.8 hPa SW 7.7 km/h 15.6 km/h 55 % 0 mm
19:30 -13.5 °C -18.1 °C 34533.8 hPa SW 5.6 km/h   56 % 0 mm
19:35 -13.6 °C -18.3 °C 34533.8 hPa Calm   5.1 km/h 55 % 0 mm
19:40 -13.7 °C -18.4 °C 34496.6 hPa WSW 2.6 km/h 7.7 km/h 55 % 0 mm
19:45 -13.7 °C -18.4 °C 34496.6 hPa WSW 5.1 km/h 12.9 km/h 55 % 0 mm
19:50 -13.8 °C -18.4 °C 34496.6 hPa SW 6 km/h 6 km/h 55 % 0 mm
19:55 -13.8 °C -18.7 °C 34533.8 hPa SW 5.1 km/h 7.7 km/h 54 % 0 mm
20:00 -13.8 °C -18.7 °C 34533.8 hPa Calm   12.9 km/h 54 % 0 mm
20:05 -13.9 °C -19.1 °C 34533.8 hPa WSW 5.1 km/h 5.1 km/h 52 % 0 mm
20:15 -13.9 °C -19.1 °C 34533.8 hPa Calm   2.6 km/h 51 % 0 mm
20:20 -13.9 °C -19.4 °C 34533.8 hPa SW 5.1 km/h 5.1 km/h 49 % 0 mm
20:25 -13.9 °C -19.4 °C 34533.8 hPa West 5.1 km/h 15.6 km/h 49 % 0 mm
20:30 -13.9 °C -19.4 °C 34533.8 hPa NE 6.3 km/h 6.3 km/h 49 % 0 mm
20:35 -13.4 °C -19.7 °C 34533.8 hPa West 5.1 km/h 10.3 km/h 45 % 0 mm
20:40 -13.3 °C -20 °C 34533.8 hPa West 5.1 km/h 15.6 km/h 42 % 0 mm
20:45 -13.1 °C -20.4 °C 34533.8 hPa West 5.1 km/h 12.9 km/h 39 % 0 mm
20:50 -12.9 °C -20.4 °C 34533.8 hPa WSW 9 km/h 9 km/h 38 % 0 mm
20:55 -12.9 °C -21 °C 34533.8 hPa WNW 12.9 km/h 15.6 km/h 35 % 0 mm
21:00 -12.8 °C -21.3 °C 34533.8 hPa SSE 20.9 km/h 20.9 km/h 33 % 0 mm
21:05 -12.7 °C -21.3 °C 34533.8 hPa NW 7.7 km/h 23.3 km/h 33 % 0 mm
21:10 -12.7 °C -21.3 °C 34567.7 hPa NNW 17.9 km/h 17.9 km/h 33 % 0 mm
21:15 -12.7 °C -21.3 °C 34567.7 hPa NNW 11.9 km/h 11.9 km/h 33 % 0 mm
21:20 -12.7 °C -21.3 °C 34567.7 hPa NNW 12.9 km/h 25.9 km/h 33 % 0 mm
21:25 -12.8 °C -21.6 °C 34601.5 hPa WNW 5.1 km/h 12.9 km/h 32 % 0 mm
21:30 -12.8 °C -21.6 °C 34601.5 hPa West 5.1 km/h 18.2 km/h 32 % 0 mm
21:35 -12.9 °C -21.7 °C 34601.5 hPa WSW 5.1 km/h 18.2 km/h 32 % 0 mm
21:40 -12.9 °C -21.9 °C 34567.7 hPa WSW 7.7 km/h 12.9 km/h 31 % 0 mm
21:50 -13.1 °C -22.1 °C 34567.7 hPa West 11.9 km/h 11.9 km/h 31 % 0 mm
21:55 -13.1 °C -22.1 °C 34601.5 hPa WSW 5.1 km/h 15.6 km/h 31 % 0 mm
22:00 -13.1 °C -22.1 °C 34601.5 hPa NW 5.1 km/h 15.6 km/h 31 % 0 mm
22:05 -13.2 °C -22.2 °C 34601.5 hPa WNW 7.7 km/h 15.6 km/h 31 % 0 mm
22:10 -13.2 °C -22.2 °C 34601.5 hPa NNE 9 km/h 9 km/h 31 % 0 mm
22:15 -13.2 °C -22.2 °C 34601.5 hPa West 5.1 km/h 12.9 km/h 31 % 0 mm
22:25 -13.3 °C -22.6 °C 34601.5 hPa West 7.7 km/h 15.6 km/h 30 % 0 mm
22:30 -13.4 °C -22.6 °C 34601.5 hPa West 7.7 km/h 20.8 km/h 30 % 0 mm
22:40 -13.5 °C -22.7 °C 34601.5 hPa NW 3.1 km/h 3.7 km/h 30 % 0 mm
22:45 -13.5 °C -22.7 °C 34601.5 hPa West 5.1 km/h 10.3 km/h 30 % 0 mm
22:50 -13.6 °C -22.7 °C 34601.5 hPa WNW 5.1 km/h 10.3 km/h 30 % 0 mm
22:55 -13.6 °C -22.7 °C 34601.5 hPa West 5.1 km/h 10.3 km/h 30 % 0 mm
23:00 -13.6 °C -22.7 °C 34601.5 hPa West 2.6 km/h 7.7 km/h 30 % 0 mm
23:05 -13.6 °C -22.7 °C 34601.5 hPa West 5.1 km/h 10.3 km/h 30 % 0 mm
23:10 -13.6 °C -22.7 °C 34601.5 hPa SSW 11.1 km/h 11.1 km/h 30 % 0 mm
23:15 -13.6 °C -22.7 °C 34601.5 hPa WSW 7.7 km/h 12.9 km/h 30 % 0 mm
23:20 -14.3 °C -23.4 °C 34601.5 hPa WSW 7.7 km/h 12.9 km/h 30 % 0 mm
23:25 -14.3 °C -23.4 °C 34601.5 hPa WSW 7.7 km/h 15.6 km/h 30 % 0 mm
23:30 -14.3 °C -23.4 °C 34601.5 hPa SW 5.1 km/h 12.9 km/h 30 % 0 mm
23:35 -14.3 °C -23.4 °C 34601.5 hPa SW 7.7 km/h 20.8 km/h 30 % 0 mm
Meteo Sesrovires
Elogis d' Weather Underground - 2 mb

Guio original per  Jim McMurry - jmcmurry@mwt.net Adaptat per a la plantilla per  Wim van der Kuil - Leuven-Template.eu

Trobareu la nostra informacio del temps tambe a:

Weather Underground

AWEKAS